sensor_id;sensor_type;location;lat;lon;timestamp;P1;durP1;ratioP1;P2;durP2;ratioP2
17133;SDS011;8682;52.120;5.252;2023-02-18T00:00:28;1374.80;;;463.50;;
17133;SDS011;8682;52.120;5.252;2023-02-18T00:02:55;1208.47;;;412.90;;
17133;SDS011;8682;52.120;5.252;2023-02-18T00:05:24;1296.80;;;425.87;;
17133;SDS011;8682;52.120;5.252;2023-02-18T00:07:51;1250.63;;;406.90;;
17133;SDS011;8682;52.120;5.252;2023-02-18T00:10:18;1086.93;;;335.73;;
17133;SDS011;8682;52.120;5.252;2023-02-18T00:12:45;1249.30;;;386.03;;
17133;SDS011;8682;52.120;5.252;2023-02-18T00:15:13;1064.43;;;292.90;;
17133;SDS011;8682;52.120;5.252;2023-02-18T00:17:40;1120.53;;;342.37;;
17133;SDS011;8682;52.120;5.252;2023-02-18T00:20:07;1041.23;;;302.73;;
17133;SDS011;8682;52.120;5.252;2023-02-18T00:22:36;857.63;;;223.27;;
17133;SDS011;8682;52.120;5.252;2023-02-18T00:25:03;836.20;;;229.87;;
17133;SDS011;8682;52.120;5.252;2023-02-18T00:27:30;1003.57;;;265.17;;
17133;SDS011;8682;52.120;5.252;2023-02-18T00:29:58;1721.37;;;795.80;;
17133;SDS011;8682;52.120;5.252;2023-02-18T00:32:25;842.40;;;224.03;;
17133;SDS011;8682;52.120;5.252;2023-02-18T00:34:52;1679.90;;;775.10;;
17133;SDS011;8682;52.120;5.252;2023-02-18T00:37:19;1726.77;;;786.77;;
17133;SDS011;8682;52.120;5.252;2023-02-18T00:39:48;867.97;;;236.60;;
17133;SDS011;8682;52.120;5.252;2023-02-18T00:42:15;906.17;;;243.07;;
17133;SDS011;8682;52.120;5.252;2023-02-18T00:44:42;1680.50;;;780.33;;
17133;SDS011;8682;52.120;5.252;2023-02-18T00:47:10;810.17;;;226.10;;
17133;SDS011;8682;52.120;5.252;2023-02-18T00:49:37;969.87;;;243.47;;
17133;SDS011;8682;52.120;5.252;2023-02-18T00:52:04;1723.57;;;800.23;;
17133;SDS011;8682;52.120;5.252;2023-02-18T00:54:31;971.40;;;287.20;;
17133;SDS011;8682;52.120;5.252;2023-02-18T00:57:00;897.97;;;244.07;;
17133;SDS011;8682;52.120;5.252;2023-02-18T00:59:27;1682.77;;;781.90;;
17133;SDS011;8682;52.120;5.252;2023-02-18T01:01:54;916.40;;;249.93;;
17133;SDS011;8682;52.120;5.252;2023-02-18T01:04:21;1698.93;;;793.87;;
17133;SDS011;8682;52.120;5.252;2023-02-18T01:06:48;964.63;;;287.40;;
17133;SDS011;8682;52.120;5.252;2023-02-18T01:09:16;1081.27;;;342.00;;
17133;SDS011;8682;52.120;5.252;2023-02-18T01:11:43;1275.23;;;368.00;;
17133;SDS011;8682;52.120;5.252;2023-02-18T01:14:12;990.37;;;297.80;;
17133;SDS011;8682;52.120;5.252;2023-02-18T01:16:39;899.53;;;236.03;;
17133;SDS011;8682;52.120;5.252;2023-02-18T01:19:06;911.47;;;242.53;;
17133;SDS011;8682;52.120;5.252;2023-02-18T01:21:33;1035.70;;;293.37;;
17133;SDS011;8682;52.120;5.252;2023-02-18T01:24:01;992.80;;;278.53;;
17133;SDS011;8682;52.120;5.252;2023-02-18T01:26:28;962.40;;;299.33;;
17133;SDS011;8682;52.120;5.252;2023-02-18T01:28:55;544.33;;;119.67;;
17133;SDS011;8682;52.120;5.252;2023-02-18T01:31:23;827.00;;;215.17;;
17133;SDS011;8682;52.120;5.252;2023-02-18T01:33:51;1641.80;;;772.20;;
17133;SDS011;8682;52.120;5.252;2023-02-18T01:36:18;1673.17;;;781.43;;
17133;SDS011;8682;52.120;5.252;2023-02-18T01:38:45;794.33;;;246.87;;
17133;SDS011;8682;52.120;5.252;2023-02-18T01:41:12;926.40;;;244.33;;
17133;SDS011;8682;52.120;5.252;2023-02-18T01:43:39;1139.50;;;329.60;;
17133;SDS011;8682;52.120;5.252;2023-02-18T01:46:11;1080.03;;;347.20;;
17133;SDS011;8682;52.120;5.252;2023-02-18T01:48:41;723.47;;;318.37;;
17133;SDS011;8682;52.120;5.252;2023-02-18T01:51:10;1618.57;;;771.00;;
17133;SDS011;8682;52.120;5.252;2023-02-18T01:53:40;907.43;;;285.67;;
17133;SDS011;8682;52.120;5.252;2023-02-18T01:56:10;1119.60;;;363.37;;
17133;SDS011;8682;52.120;5.252;2023-02-18T01:58:39;1711.43;;;796.67;;
17133;SDS011;8682;52.120;5.252;2023-02-18T02:01:07;957.57;;;279.17;;
17133;SDS011;8682;52.120;5.252;2023-02-18T02:03:35;1238.13;;;372.67;;
17133;SDS011;8682;52.120;5.252;2023-02-18T02:06:08;1000.73;;;333.67;;
17133;SDS011;8682;52.120;5.252;2023-02-18T02:08:38;1018.83;;;306.40;;
17133;SDS011;8682;52.120;5.252;2023-02-18T02:11:08;1092.73;;;347.10;;
17133;SDS011;8682;52.120;5.252;2023-02-18T02:13:43;1140.57;;;375.23;;
17133;SDS011;8682;52.120;5.252;2023-02-18T02:16:15;937.63;;;316.00;;
17133;SDS011;8682;52.120;5.252;2023-02-18T02:18:49;944.23;;;376.43;;
17133;SDS011;8682;52.120;5.252;2023-02-18T02:27:00;985.00;;;351.53;;
17133;SDS011;8682;52.120;5.252;2023-02-18T02:29:35;1026.97;;;351.90;;
17133;SDS011;8682;52.120;5.252;2023-02-18T02:32:13;1052.73;;;365.53;;
17133;SDS011;8682;52.120;5.252;2023-02-18T02:34:48;984.33;;;401.20;;
17133;SDS011;8682;52.120;5.252;2023-02-18T02:37:19;974.33;;;365.77;;
17133;SDS011;8682;52.120;5.252;2023-02-18T02:39:52;1033.27;;;408.33;;
17133;SDS011;8682;52.120;5.252;2023-02-18T02:42:24;1016.53;;;387.93;;
17133;SDS011;8682;52.120;5.252;2023-02-18T02:44:53;1097.77;;;431.07;;
17133;SDS011;8682;52.120;5.252;2023-02-18T02:47:24;1093.33;;;445.57;;
17133;SDS011;8682;52.120;5.252;2023-02-18T02:49:56;1023.00;;;415.03;;
17133;SDS011;8682;52.120;5.252;2023-02-18T02:52:27;1008.20;;;442.63;;
17133;SDS011;8682;52.120;5.252;2023-02-18T02:54:56;1199.80;;;489.20;;
17133;SDS011;8682;52.120;5.252;2023-02-18T02:57:46;1148.03;;;505.33;;
17133;SDS011;8682;52.120;5.252;2023-02-18T03:00:14;1016.50;;;437.20;;
17133;SDS011;8682;52.120;5.252;2023-02-18T03:02:47;1114.67;;;438.17;;
17133;SDS011;8682;52.120;5.252;2023-02-18T03:05:20;1206.07;;;491.17;;
17133;SDS011;8682;52.120;5.252;2023-02-18T03:07:59;1133.93;;;397.83;;
17133;SDS011;8682;52.120;5.252;2023-02-18T03:10:45;992.33;;;405.17;;
17133;SDS011;8682;52.120;5.252;2023-02-18T03:13:15;1239.30;;;459.13;;
17133;SDS011;8682;52.120;5.252;2023-02-18T03:15:48;1334.90;;;546.50;;
17133;SDS011;8682;52.120;5.252;2023-02-18T03:18:18;1197.47;;;485.23;;
17133;SDS011;8682;52.120;5.252;2023-02-18T03:20:50;1002.23;;;443.23;;
17133;SDS011;8682;52.120;5.252;2023-02-18T03:23:19;1208.27;;;476.10;;
17133;SDS011;8682;52.120;5.252;2023-02-18T03:25:48;1062.67;;;432.07;;
17133;SDS011;8682;52.120;5.252;2023-02-18T03:28:17;1059.13;;;447.37;;
17133;SDS011;8682;52.120;5.252;2023-02-18T03:30:47;1064.67;;;450.03;;
17133;SDS011;8682;52.120;5.252;2023-02-18T03:33:16;1238.27;;;441.13;;
17133;SDS011;8682;52.120;5.252;2023-02-18T03:35:43;1108.53;;;430.77;;
17133;SDS011;8682;52.120;5.252;2023-02-18T03:38:13;1051.93;;;404.17;;
17133;SDS011;8682;52.120;5.252;2023-02-18T03:40:42;1095.57;;;467.53;;
17133;SDS011;8682;52.120;5.252;2023-02-18T03:43:09;1055.37;;;459.43;;
17133;SDS011;8682;52.120;5.252;2023-02-18T03:45:36;1078.33;;;443.47;;
17133;SDS011;8682;52.120;5.252;2023-02-18T03:48:04;1319.17;;;507.53;;
17133;SDS011;8682;52.120;5.252;2023-02-18T03:50:31;1180.13;;;519.67;;
17133;SDS011;8682;52.120;5.252;2023-02-18T03:52:59;1098.30;;;471.53;;
17133;SDS011;8682;52.120;5.252;2023-02-18T03:55:27;1134.70;;;469.87;;
17133;SDS011;8682;52.120;5.252;2023-02-18T03:57:54;1168.43;;;504.40;;
17133;SDS011;8682;52.120;5.252;2023-02-18T04:00:21;1025.23;;;372.80;;
17133;SDS011;8682;52.120;5.252;2023-02-18T04:02:49;1113.77;;;478.73;;
17133;SDS011;8682;52.120;5.252;2023-02-18T04:05:16;865.07;;;377.17;;
17133;SDS011;8682;52.120;5.252;2023-02-18T04:07:43;1145.67;;;476.37;;
17133;SDS011;8682;52.120;5.252;2023-02-18T04:10:10;985.53;;;443.77;;
17133;SDS011;8682;52.120;5.252;2023-02-18T04:12:38;1098.77;;;474.07;;
17133;SDS011;8682;52.120;5.252;2023-02-18T04:15:06;1002.03;;;432.00;;
17133;SDS011;8682;52.120;5.252;2023-02-18T04:17:33;1211.77;;;527.27;;
17133;SDS011;8682;52.120;5.252;2023-02-18T04:20:00;1134.53;;;451.80;;
17133;SDS011;8682;52.120;5.252;2023-02-18T04:22:28;1088.17;;;507.93;;
17133;SDS011;8682;52.120;5.252;2023-02-18T04:24:56;1156.10;;;486.63;;
17133;SDS011;8682;52.120;5.252;2023-02-18T04:27:23;1074.17;;;484.40;;
17133;SDS011;8682;52.120;5.252;2023-02-18T04:29:51;1139.17;;;501.13;;
17133;SDS011;8682;52.120;5.252;2023-02-18T04:32:18;850.83;;;376.93;;
17133;SDS011;8682;52.120;5.252;2023-02-18T04:34:46;1211.07;;;563.50;;
17133;SDS011;8682;52.120;5.252;2023-02-18T04:37:13;1204.97;;;550.37;;
17133;SDS011;8682;52.120;5.252;2023-02-18T04:39:40;1075.10;;;491.50;;
17133;SDS011;8682;52.120;5.252;2023-02-18T04:42:07;1070.87;;;503.27;;
17133;SDS011;8682;52.120;5.252;2023-02-18T04:44:34;1168.50;;;490.47;;
17133;SDS011;8682;52.120;5.252;2023-02-18T04:47:03;1181.90;;;527.60;;
17133;SDS011;8682;52.120;5.252;2023-02-18T04:49:30;1103.17;;;484.60;;
17133;SDS011;8682;52.120;5.252;2023-02-18T04:51:57;1137.27;;;490.80;;
17133;SDS011;8682;52.120;5.252;2023-02-18T04:54:25;1119.00;;;506.23;;
17133;SDS011;8682;52.120;5.252;2023-02-18T04:56:52;1092.77;;;503.60;;
17133;SDS011;8682;52.120;5.252;2023-02-18T04:59:19;926.27;;;467.97;;
17133;SDS011;8682;52.120;5.252;2023-02-18T05:01:46;1054.57;;;484.27;;
17133;SDS011;8682;52.120;5.252;2023-02-18T05:04:15;892.03;;;436.17;;
17133;SDS011;8682;52.120;5.252;2023-02-18T05:06:42;1094.87;;;488.00;;
17133;SDS011;8682;52.120;5.252;2023-02-18T05:09:09;1050.30;;;451.13;;
17133;SDS011;8682;52.120;5.252;2023-02-18T05:11:37;780.37;;;352.53;;
17133;SDS011;8682;52.120;5.252;2023-02-18T05:14:04;940.77;;;454.40;;
17133;SDS011;8682;52.120;5.252;2023-02-18T05:16:31;1140.10;;;518.90;;
17133;SDS011;8682;52.120;5.252;2023-02-18T05:18:58;988.67;;;446.17;;
17133;SDS011;8682;52.120;5.252;2023-02-18T05:21:27;796.20;;;423.13;;
17133;SDS011;8682;52.120;5.252;2023-02-18T05:23:54;987.50;;;478.80;;
17133;SDS011;8682;52.120;5.252;2023-02-18T05:26:21;1055.50;;;498.00;;
17133;SDS011;8682;52.120;5.252;2023-02-18T05:28:48;1078.40;;;543.13;;
17133;SDS011;8682;52.120;5.252;2023-02-18T05:31:16;925.93;;;451.47;;
17133;SDS011;8682;52.120;5.252;2023-02-18T05:33:43;1095.30;;;527.70;;
17133;SDS011;8682;52.120;5.252;2023-02-18T05:36:10;1083.00;;;493.97;;
17133;SDS011;8682;52.120;5.252;2023-02-18T05:38:38;960.43;;;488.97;;
17133;SDS011;8682;52.120;5.252;2023-02-18T05:41:06;1031.43;;;507.00;;
17133;SDS011;8682;52.120;5.252;2023-02-18T05:43:33;758.60;;;419.23;;
17133;SDS011;8682;52.120;5.252;2023-02-18T05:46:20;911.97;;;389.40;;
17133;SDS011;8682;52.120;5.252;2023-02-18T05:48:47;1011.33;;;484.00;;
17133;SDS011;8682;52.120;5.252;2023-02-18T05:51:14;842.47;;;414.17;;
17133;SDS011;8682;52.120;5.252;2023-02-18T05:53:43;988.57;;;509.23;;
17133;SDS011;8682;52.120;5.252;2023-02-18T05:56:10;1094.60;;;639.87;;
17133;SDS011;8682;52.120;5.252;2023-02-18T05:58:37;1031.07;;;501.43;;
17133;SDS011;8682;52.120;5.252;2023-02-18T06:01:04;960.43;;;484.27;;
17133;SDS011;8682;52.120;5.252;2023-02-18T06:03:31;996.77;;;563.00;;
17133;SDS011;8682;52.120;5.252;2023-02-18T06:05:58;692.03;;;391.20;;
17133;SDS011;8682;52.120;5.252;2023-02-18T06:08:25;802.57;;;394.70;;
17133;SDS011;8682;52.120;5.252;2023-02-18T06:10:54;918.47;;;541.77;;
17133;SDS011;8682;52.120;5.252;2023-02-18T06:13:21;870.40;;;468.50;;
17133;SDS011;8682;52.120;5.252;2023-02-18T06:15:49;1090.13;;;514.43;;
17133;SDS011;8682;52.120;5.252;2023-02-18T06:18:16;1037.10;;;624.53;;
17133;SDS011;8682;52.120;5.252;2023-02-18T06:20:45;899.10;;;443.70;;
17133;SDS011;8682;52.120;5.252;2023-02-18T06:23:12;982.57;;;493.83;;
17133;SDS011;8682;52.120;5.252;2023-02-18T06:25:39;892.77;;;453.53;;
17133;SDS011;8682;52.120;5.252;2023-02-18T06:28:08;1105.33;;;512.53;;
17133;SDS011;8682;52.120;5.252;2023-02-18T06:30:35;795.90;;;410.73;;
17133;SDS011;8682;52.120;5.252;2023-02-18T06:33:02;1052.27;;;507.40;;
17133;SDS011;8682;52.120;5.252;2023-02-18T06:35:29;1031.67;;;536.17;;
17133;SDS011;8682;52.120;5.252;2023-02-18T06:37:57;1011.67;;;517.70;;
17133;SDS011;8682;52.120;5.252;2023-02-18T06:40:24;1136.63;;;525.07;;
17133;SDS011;8682;52.120;5.252;2023-02-18T06:42:51;1072.03;;;497.33;;
17133;SDS011;8682;52.120;5.252;2023-02-18T06:45:20;918.27;;;490.60;;
17133;SDS011;8682;52.120;5.252;2023-02-18T06:47:47;1212.97;;;561.10;;
17133;SDS011;8682;52.120;5.252;2023-02-18T06:50:14;1037.93;;;484.43;;
17133;SDS011;8682;52.120;5.252;2023-02-18T06:52:43;1401.23;;;575.03;;
17133;SDS011;8682;52.120;5.252;2023-02-18T06:55:11;906.47;;;359.30;;
17133;SDS011;8682;52.120;5.252;2023-02-18T06:57:38;920.73;;;406.13;;
17133;SDS011;8682;52.120;5.252;2023-02-18T07:00:06;1005.63;;;477.70;;
17133;SDS011;8682;52.120;5.252;2023-02-18T07:02:35;1184.83;;;513.13;;
17133;SDS011;8682;52.120;5.252;2023-02-18T07:05:03;995.27;;;452.20;;
17133;SDS011;8682;52.120;5.252;2023-02-18T07:07:30;1018.80;;;442.67;;
17133;SDS011;8682;52.120;5.252;2023-02-18T07:09:57;656.17;;;288.23;;
17133;SDS011;8682;52.120;5.252;2023-02-18T07:12:25;890.03;;;481.53;;
17133;SDS011;8682;52.120;5.252;2023-02-18T07:14:52;1268.73;;;592.67;;
17133;SDS011;8682;52.120;5.252;2023-02-18T07:17:19;1046.30;;;424.60;;
17133;SDS011;8682;52.120;5.252;2023-02-18T07:19:48;996.57;;;484.87;;
17133;SDS011;8682;52.120;5.252;2023-02-18T07:22:15;1058.93;;;513.90;;
17133;SDS011;8682;52.120;5.252;2023-02-18T07:24:42;1281.30;;;521.57;;
17133;SDS011;8682;52.120;5.252;2023-02-18T07:27:10;1162.00;;;521.27;;
17133;SDS011;8682;52.120;5.252;2023-02-18T07:29:37;954.10;;;469.87;;
17133;SDS011;8682;52.120;5.252;2023-02-18T07:32:04;802.03;;;388.43;;
17133;SDS011;8682;52.120;5.252;2023-02-18T07:34:31;853.43;;;433.97;;
17133;SDS011;8682;52.120;5.252;2023-02-18T07:37:00;964.93;;;504.83;;
17133;SDS011;8682;52.120;5.252;2023-02-18T07:39:28;1038.93;;;489.03;;
17133;SDS011;8682;52.120;5.252;2023-02-18T07:41:56;1029.57;;;510.90;;
17133;SDS011;8682;52.120;5.252;2023-02-18T07:44:23;1036.17;;;529.87;;
17133;SDS011;8682;52.120;5.252;2023-02-18T07:46:51;1053.87;;;509.67;;
17133;SDS011;8682;52.120;5.252;2023-02-18T07:49:18;1105.43;;;545.00;;
17133;SDS011;8682;52.120;5.252;2023-02-18T07:51:46;976.93;;;450.27;;
17133;SDS011;8682;52.120;5.252;2023-02-18T07:54:14;935.00;;;476.73;;
17133;SDS011;8682;52.120;5.252;2023-02-18T07:56:42;1011.87;;;485.37;;
17133;SDS011;8682;52.120;5.252;2023-02-18T07:59:09;1126.70;;;544.97;;
17133;SDS011;8682;52.120;5.252;2023-02-18T08:01:37;1098.13;;;505.43;;
17133;SDS011;8682;52.120;5.252;2023-02-18T08:04:04;749.93;;;310.40;;
17133;SDS011;8682;52.120;5.252;2023-02-18T08:06:32;1221.40;;;530.10;;
17133;SDS011;8682;52.120;5.252;2023-02-18T08:08:59;1077.17;;;477.33;;
17133;SDS011;8682;52.120;5.252;2023-02-18T08:11:28;1010.63;;;490.20;;
17133;SDS011;8682;52.120;5.252;2023-02-18T08:13:55;998.03;;;417.10;;
17133;SDS011;8682;52.120;5.252;2023-02-18T08:16:23;1192.93;;;508.37;;
17133;SDS011;8682;52.120;5.252;2023-02-18T08:18:50;1261.93;;;471.00;;
17133;SDS011;8682;52.120;5.252;2023-02-18T08:21:18;902.50;;;405.83;;
17133;SDS011;8682;52.120;5.252;2023-02-18T08:23:45;1120.53;;;452.93;;
17133;SDS011;8682;52.120;5.252;2023-02-18T08:26:13;719.67;;;241.03;;
17133;SDS011;8682;52.120;5.252;2023-02-18T08:28:42;1041.43;;;395.80;;
17133;SDS011;8682;52.120;5.252;2023-02-18T08:31:14;906.00;;;393.07;;
17133;SDS011;8682;52.120;5.252;2023-02-18T08:33:42;964.83;;;346.47;;
17133;SDS011;8682;52.120;5.252;2023-02-18T08:36:09;1332.67;;;504.17;;
17133;SDS011;8682;52.120;5.252;2023-02-18T08:38:36;928.40;;;358.70;;
17133;SDS011;8682;52.120;5.252;2023-02-18T08:41:04;884.57;;;349.93;;
17133;SDS011;8682;52.120;5.252;2023-02-18T08:43:32;912.67;;;346.77;;
17133;SDS011;8682;52.120;5.252;2023-02-18T08:46:00;935.17;;;335.90;;
17133;SDS011;8682;52.120;5.252;2023-02-18T08:48:28;1614.50;;;780.67;;
17133;SDS011;8682;52.120;5.252;2023-02-18T08:50:55;1099.43;;;442.67;;
17133;SDS011;8682;52.120;5.252;2023-02-18T08:53:22;927.40;;;306.80;;
17133;SDS011;8682;52.120;5.252;2023-02-18T08:55:49;801.67;;;275.83;;
17133;SDS011;8682;52.120;5.252;2023-02-18T08:58:17;936.50;;;302.87;;
17133;SDS011;8682;52.120;5.252;2023-02-18T09:00:44;1624.27;;;784.23;;
17133;SDS011;8682;52.120;5.252;2023-02-18T09:03:13;1646.30;;;778.80;;
17133;SDS011;8682;52.120;5.252;2023-02-18T09:05:41;862.50;;;282.73;;
17133;SDS011;8682;52.120;5.252;2023-02-18T09:08:08;907.63;;;273.27;;
17133;SDS011;8682;52.120;5.252;2023-02-18T09:10:35;679.23;;;200.10;;
17133;SDS011;8682;52.120;5.252;2023-02-18T09:13:03;796.53;;;244.93;;
17133;SDS011;8682;52.120;5.252;2023-02-18T09:15:30;1640.00;;;754.90;;
17133;SDS011;8682;52.120;5.252;2023-02-18T09:17:58;1646.17;;;774.10;;
17133;SDS011;8682;52.120;5.252;2023-02-18T09:20:26;518.67;;;163.00;;
17133;SDS011;8682;52.120;5.252;2023-02-18T09:22:53;760.13;;;191.33;;
17133;SDS011;8682;52.120;5.252;2023-02-18T09:25:21;539.13;;;137.73;;
17133;SDS011;8682;52.120;5.252;2023-02-18T09:27:49;1571.13;;;731.93;;
17133;SDS011;8682;52.120;5.252;2023-02-18T09:30:16;715.30;;;197.43;;
17133;SDS011;8682;52.120;5.252;2023-02-18T09:32:43;1671.73;;;773.03;;
17133;SDS011;8682;52.120;5.252;2023-02-18T09:35:10;1673.07;;;767.50;;
17133;SDS011;8682;52.120;5.252;2023-02-18T09:37:39;754.93;;;256.80;;
17133;SDS011;8682;52.120;5.252;2023-02-18T09:40:06;1633.77;;;763.93;;
17133;SDS011;8682;52.120;5.252;2023-02-18T09:42:33;1645.27;;;764.43;;
17133;SDS011;8682;52.120;5.252;2023-02-18T09:45:02;554.10;;;210.43;;
17133;SDS011;8682;52.120;5.252;2023-02-18T09:47:30;1611.60;;;759.00;;
17133;SDS011;8682;52.120;5.252;2023-02-18T09:49:59;574.03;;;183.53;;
17133;SDS011;8682;52.120;5.252;2023-02-18T09:52:30;773.30;;;222.67;;
17133;SDS011;8682;52.120;5.252;2023-02-18T09:54:59;505.03;;;119.57;;
17133;SDS011;8682;52.120;5.252;2023-02-18T09:57:28;1590.17;;;736.27;;
17133;SDS011;8682;52.120;5.252;2023-02-18T09:59:56;1572.37;;;754.33;;
17133;SDS011;8682;52.120;5.252;2023-02-18T10:02:25;952.53;;;398.43;;
17133;SDS011;8682;52.120;5.252;2023-02-18T10:04:53;1608.43;;;743.30;;
17133;SDS011;8682;52.120;5.252;2023-02-18T10:07:22;1651.73;;;763.73;;
17133;SDS011;8682;52.120;5.252;2023-02-18T10:09:51;1678.20;;;782.50;;
17133;SDS011;8682;52.120;5.252;2023-02-18T10:12:21;458.50;;;128.17;;
17133;SDS011;8682;52.120;5.252;2023-02-18T10:14:49;493.43;;;121.27;;
17133;SDS011;8682;52.120;5.252;2023-02-18T10:17:16;1122.37;;;479.53;;
17133;SDS011;8682;52.120;5.252;2023-02-18T10:19:45;1445.93;;;701.97;;
17133;SDS011;8682;52.120;5.252;2023-02-18T10:22:13;1473.63;;;701.97;;
17133;SDS011;8682;52.120;5.252;2023-02-18T10:24:41;1404.27;;;684.00;;
17133;SDS011;8682;52.120;5.252;2023-02-18T10:27:10;914.00;;;429.50;;
17133;SDS011;8682;52.120;5.252;2023-02-18T10:29:43;1999.90;;;999.90;;
17133;SDS011;8682;52.120;5.252;2023-02-18T10:32:15;1999.90;;;999.90;;
17133;SDS011;8682;52.120;5.252;2023-02-18T10:34:46;1999.90;;;999.90;;
17133;SDS011;8682;52.120;5.252;2023-02-18T10:37:20;1999.90;;;999.90;;
17133;SDS011;8682;52.120;5.252;2023-02-18T10:39:52;1999.90;;;999.90;;
17133;SDS011;8682;52.120;5.252;2023-02-18T10:42:26;1999.90;;;999.90;;
17133;SDS011;8682;52.120;5.252;2023-02-18T10:45:02;1999.90;;;999.90;;
17133;SDS011;8682;52.120;5.252;2023-02-18T10:47:33;1999.90;;;999.90;;
17133;SDS011;8682;52.120;5.252;2023-02-18T10:50:04;1999.90;;;999.90;;
17133;SDS011;8682;52.120;5.252;2023-02-18T10:52:35;1999.90;;;999.90;;
17133;SDS011;8682;52.120;5.252;2023-02-18T10:55:04;1999.90;;;999.90;;
17133;SDS011;8682;52.120;5.252;2023-02-18T10:57:33;1999.90;;;999.90;;
17133;SDS011;8682;52.120;5.252;2023-02-18T11:00:03;1999.90;;;999.90;;
17133;SDS011;8682;52.120;5.252;2023-02-18T11:02:36;1999.90;;;999.90;;
17133;SDS011;8682;52.120;5.252;2023-02-18T11:05:05;1999.90;;;999.90;;
17133;SDS011;8682;52.120;5.252;2023-02-18T11:07:33;1999.90;;;999.90;;
17133;SDS011;8682;52.120;5.252;2023-02-18T11:10:06;1999.90;;;999.90;;
17133;SDS011;8682;52.120;5.252;2023-02-18T11:12:40;1999.90;;;999.90;;
17133;SDS011;8682;52.120;5.252;2023-02-18T11:15:16;1999.90;;;999.90;;
17133;SDS011;8682;52.120;5.252;2023-02-18T11:17:44;1999.90;;;999.90;;
17133;SDS011;8682;52.120;5.252;2023-02-18T11:20:25;1999.90;;;999.90;;
17133;SDS011;8682;52.120;5.252;2023-02-18T11:22:58;1999.90;;;999.90;;
17133;SDS011;8682;52.120;5.252;2023-02-18T11:25:26;1999.90;;;999.90;;
17133;SDS011;8682;52.120;5.252;2023-02-18T11:27:57;1999.90;;;999.90;;
17133;SDS011;8682;52.120;5.252;2023-02-18T11:30:29;1999.90;;;999.90;;
17133;SDS011;8682;52.120;5.252;2023-02-18T11:32:58;1999.90;;;999.90;;
17133;SDS011;8682;52.120;5.252;2023-02-18T11:35:26;1999.90;;;999.90;;
17133;SDS011;8682;52.120;5.252;2023-02-18T11:37:54;1999.90;;;999.90;;
17133;SDS011;8682;52.120;5.252;2023-02-18T11:40:23;1999.90;;;999.90;;
17133;SDS011;8682;52.120;5.252;2023-02-18T11:42:51;1999.90;;;999.90;;
17133;SDS011;8682;52.120;5.252;2023-02-18T11:45:29;1999.90;;;999.90;;
17133;SDS011;8682;52.120;5.252;2023-02-18T11:47:58;1999.90;;;999.90;;
17133;SDS011;8682;52.120;5.252;2023-02-18T11:50:25;1428.53;;;694.60;;
17133;SDS011;8682;52.120;5.252;2023-02-18T11:52:56;1999.90;;;999.90;;
17133;SDS011;8682;52.120;5.252;2023-02-18T11:55:24;1999.90;;;999.90;;
17133;SDS011;8682;52.120;5.252;2023-02-18T11:57:53;1999.90;;;999.90;;
17133;SDS011;8682;52.120;5.252;2023-02-18T12:00:23;1999.90;;;999.90;;
17133;SDS011;8682;52.120;5.252;2023-02-18T12:02:52;1999.90;;;999.90;;
17133;SDS011;8682;52.120;5.252;2023-02-18T12:05:22;1999.90;;;999.90;;
17133;SDS011;8682;52.120;5.252;2023-02-18T12:07:50;1999.90;;;999.90;;
17133;SDS011;8682;52.120;5.252;2023-02-18T12:10:19;1999.90;;;999.90;;
17133;SDS011;8682;52.120;5.252;2023-02-18T12:12:49;1999.90;;;999.90;;
17133;SDS011;8682;52.120;5.252;2023-02-18T12:15:19;1999.90;;;999.90;;
17133;SDS011;8682;52.120;5.252;2023-02-18T12:17:56;1999.90;;;999.90;;
17133;SDS011;8682;52.120;5.252;2023-02-18T12:20:35;1999.90;;;999.90;;
17133;SDS011;8682;52.120;5.252;2023-02-18T12:23:10;1999.90;;;999.90;;
17133;SDS011;8682;52.120;5.252;2023-02-18T12:25:43;1999.90;;;999.90;;
17133;SDS011;8682;52.120;5.252;2023-02-18T12:28:17;1999.90;;;999.90;;
17133;SDS011;8682;52.120;5.252;2023-02-18T12:30:55;1999.90;;;999.90;;
17133;SDS011;8682;52.120;5.252;2023-02-18T12:33:27;1999.90;;;999.90;;
17133;SDS011;8682;52.120;5.252;2023-02-18T12:36:02;1999.90;;;999.90;;
17133;SDS011;8682;52.120;5.252;2023-02-18T12:41:16;1999.90;;;999.90;;
17133;SDS011;8682;52.120;5.252;2023-02-18T12:43:49;1999.90;;;999.90;;
17133;SDS011;8682;52.120;5.252;2023-02-18T12:46:21;1999.90;;;999.90;;
17133;SDS011;8682;52.120;5.252;2023-02-18T12:49:12;1999.90;;;999.90;;
17133;SDS011;8682;52.120;5.252;2023-02-18T12:51:44;1999.90;;;999.90;;
17133;SDS011;8682;52.120;5.252;2023-02-18T12:54:19;1999.90;;;999.90;;
17133;SDS011;8682;52.120;5.252;2023-02-18T12:56:51;1620.43;;;916.00;;
17133;SDS011;8682;52.120;5.252;2023-02-18T12:59:28;1999.90;;;999.90;;
17133;SDS011;8682;52.120;5.252;2023-02-18T13:02:00;1999.90;;;999.90;;
17133;SDS011;8682;52.120;5.252;2023-02-18T13:04:38;1246.63;;;717.50;;
17133;SDS011;8682;52.120;5.252;2023-02-18T13:10:08;1296.27;;;765.40;;
17133;SDS011;8682;52.120;5.252;2023-02-18T13:12:40;1294.50;;;726.90;;
17133;SDS011;8682;52.120;5.252;2023-02-18T13:15:12;1418.87;;;847.57;;
17133;SDS011;8682;52.120;5.252;2023-02-18T13:17:42;1999.90;;;999.90;;
17133;SDS011;8682;52.120;5.252;2023-02-18T13:20:14;1999.90;;;999.90;;
17133;SDS011;8682;52.120;5.252;2023-02-18T13:22:44;1351.87;;;773.37;;
17133;SDS011;8682;52.120;5.252;2023-02-18T13:25:14;1999.90;;;999.90;;
17133;SDS011;8682;52.120;5.252;2023-02-18T13:27:42;1999.90;;;999.90;;
17133;SDS011;8682;52.120;5.252;2023-02-18T13:30:16;1999.90;;;999.90;;
17133;SDS011;8682;52.120;5.252;2023-02-18T13:32:47;1999.90;;;999.90;;
17133;SDS011;8682;52.120;5.252;2023-02-18T13:35:20;1999.90;;;999.90;;
17133;SDS011;8682;52.120;5.252;2023-02-18T13:37:52;1999.90;;;999.90;;
17133;SDS011;8682;52.120;5.252;2023-02-18T13:40:25;1999.90;;;999.90;;
17133;SDS011;8682;52.120;5.252;2023-02-18T13:42:57;1453.97;;;891.67;;
17133;SDS011;8682;52.120;5.252;2023-02-18T13:45:41;1376.43;;;803.13;;
17133;SDS011;8682;52.120;5.252;2023-02-18T13:48:20;1471.47;;;843.00;;
17133;SDS011;8682;52.120;5.252;2023-02-18T13:50:49;1215.87;;;795.07;;
17133;SDS011;8682;52.120;5.252;2023-02-18T13:53:21;1999.90;;;999.90;;
17133;SDS011;8682;52.120;5.252;2023-02-18T13:55:50;1999.90;;;999.90;;
17133;SDS011;8682;52.120;5.252;2023-02-18T13:58:19;1999.90;;;999.90;;
17133;SDS011;8682;52.120;5.252;2023-02-18T14:00:48;1388.83;;;896.57;;
17133;SDS011;8682;52.120;5.252;2023-02-18T14:03:27;1336.20;;;876.27;;
17133;SDS011;8682;52.120;5.252;2023-02-18T14:05:58;201.30;;;190.60;;
17133;SDS011;8682;52.120;5.252;2023-02-18T14:08:29;1999.90;;;999.90;;
17133;SDS011;8682;52.120;5.252;2023-02-18T14:13:45;1209.30;;;795.57;;
17133;SDS011;8682;52.120;5.252;2023-02-18T14:16:13;1999.90;;;775.05;;
17133;SDS011;8682;52.120;5.252;2023-02-18T14:18:53;1999.90;;;999.90;;
17133;SDS011;8682;52.120;5.252;2023-02-18T14:21:33;1441.67;;;812.90;;
17133;SDS011;8682;52.120;5.252;2023-02-18T14:24:01;1187.43;;;732.90;;
17133;SDS011;8682;52.120;5.252;2023-02-18T14:26:32;1207.40;;;694.97;;